sensor_id;sensor_type;location;lat;lon;timestamp;pressure;altitude;pressure_sealevel;temperature;humidity
29733;BME280;16643;43.158;25.302;2023-06-22T00:02:17;98266.25;;;22.29;96.88
29733;BME280;16643;43.158;25.302;2023-06-22T00:04:43;98271.69;;;22.38;96.44
29733;BME280;16643;43.158;25.302;2023-06-22T00:07:08;98230.69;;;22.20;96.22
29733;BME280;16643;43.158;25.302;2023-06-22T00:09:35;98267.97;;;22.41;96.64
29733;BME280;16643;43.158;25.302;2023-06-22T00:12:01;98270.72;;;22.39;97.43
29733;BME280;16643;43.158;25.302;2023-06-22T00:14:26;98253.22;;;22.26;98.40
29733;BME280;16643;43.158;25.302;2023-06-22T00:16:52;98261.91;;;22.28;98.04
29733;BME280;16643;43.158;25.302;2023-06-22T00:19:22;98267.31;;;22.26;98.66
29733;BME280;16643;43.158;25.302;2023-06-22T00:21:49;98290.97;;;22.40;98.78
29733;BME280;16643;43.158;25.302;2023-06-22T00:24:21;98264.97;;;22.11;97.92
29733;BME280;16643;43.158;25.302;2023-06-22T00:26:49;98264.38;;;21.94;99.08
29733;BME280;16643;43.158;25.302;2023-06-22T00:29:15;98287.97;;;22.10;100.00
29733;BME280;16643;43.158;25.302;2023-06-22T00:31:40;98262.38;;;21.98;100.00
29733;BME280;16643;43.158;25.302;2023-06-22T00:34:06;98279.91;;;22.12;99.51
29733;BME280;16643;43.158;25.302;2023-06-22T00:36:34;98278.47;;;21.95;99.16
29733;BME280;16643;43.158;25.302;2023-06-22T00:39:00;98218.59;;;21.57;100.00
29733;BME280;16643;43.158;25.302;2023-06-22T00:41:25;98258.72;;;21.88;100.00
29733;BME280;16643;43.158;25.302;2023-06-22T00:43:54;98292.13;;;22.01;100.00
29733;BME280;16643;43.158;25.302;2023-06-22T00:46:21;98285.34;;;21.97;100.00
29733;BME280;16643;43.158;25.302;2023-06-22T00:48:48;98258.28;;;21.81;100.00
29733;BME280;16643;43.158;25.302;2023-06-22T00:51:14;98295.75;;;22.00;100.00
29733;BME280;16643;43.158;25.302;2023-06-22T00:53:39;98279.78;;;21.89;100.00
29733;BME280;16643;43.158;25.302;2023-06-22T00:56:06;98243.28;;;21.45;100.00
29733;BME280;16643;43.158;25.302;2023-06-22T00:58:35;98269.44;;;21.37;100.00
29733;BME280;16643;43.158;25.302;2023-06-22T01:01:01;98261.22;;;21.16;100.00
29733;BME280;16643;43.158;25.302;2023-06-22T01:03:27;98264.44;;;21.21;100.00
29733;BME280;16643;43.158;25.302;2023-06-22T01:05:59;98256.13;;;21.13;100.00
29733;BME280;16643;43.158;25.302;2023-06-22T01:08:33;98240.41;;;20.99;100.00
29733;BME280;16643;43.158;25.302;2023-06-22T01:11:23;98268.63;;;21.11;100.00
29733;BME280;16643;43.158;25.302;2023-06-22T01:16:30;98260.38;;;21.16;100.00
29733;BME280;16643;43.158;25.302;2023-06-22T01:18:58;98249.91;;;21.14;100.00
29733;BME280;16643;43.158;25.302;2023-06-22T01:21:28;98262.56;;;21.34;100.00
29733;BME280;16643;43.158;25.302;2023-06-22T01:24:15;98260.16;;;21.44;100.00
29733;BME280;16643;43.158;25.302;2023-06-22T01:29:11;98255.16;;;21.40;100.00
29733;BME280;16643;43.158;25.302;2023-06-22T01:31:39;98262.97;;;21.54;100.00
29733;BME280;16643;43.158;25.302;2023-06-22T01:34:06;98253.25;;;21.42;100.00
29733;BME280;16643;43.158;25.302;2023-06-22T01:36:33;98244.28;;;21.44;100.00
29733;BME280;16643;43.158;25.302;2023-06-22T01:39:00;98249.41;;;21.46;100.00
29733;BME280;16643;43.158;25.302;2023-06-22T01:41:28;98257.59;;;21.43;100.00
29733;BME280;16643;43.158;25.302;2023-06-22T01:43:55;98266.59;;;21.40;100.00
29733;BME280;16643;43.158;25.302;2023-06-22T01:46:21;98242.81;;;21.15;100.00
29733;BME280;16643;43.158;25.302;2023-06-22T01:48:48;98258.78;;;21.13;100.00
29733;BME280;16643;43.158;25.302;2023-06-22T01:51:14;98254.78;;;21.08;100.00
29733;BME280;16643;43.158;25.302;2023-06-22T01:53:40;98258.19;;;21.10;100.00
29733;BME280;16643;43.158;25.302;2023-06-22T01:56:06;98244.00;;;20.98;100.00
29733;BME280;16643;43.158;25.302;2023-06-22T01:58:32;98257.44;;;21.08;100.00
29733;BME280;16643;43.158;25.302;2023-06-22T02:01:00;98261.03;;;21.07;100.00
29733;BME280;16643;43.158;25.302;2023-06-22T02:03:40;98262.53;;;20.98;100.00
29733;BME280;16643;43.158;25.302;2023-06-22T02:06:16;98263.88;;;21.03;100.00
29733;BME280;16643;43.158;25.302;2023-06-22T02:08:48;98214.31;;;20.82;100.00
29733;BME280;16643;43.158;25.302;2023-06-22T02:11:17;98299.53;;;21.23;100.00
29733;BME280;16643;43.158;25.302;2023-06-22T02:13:44;98287.38;;;21.21;100.00
29733;BME280;16643;43.158;25.302;2023-06-22T02:16:13;98294.00;;;21.14;100.00
29733;BME280;16643;43.158;25.302;2023-06-22T02:18:49;98275.41;;;21.02;100.00
29733;BME280;16643;43.158;25.302;2023-06-22T02:21:19;98281.97;;;21.10;100.00
29733;BME280;16643;43.158;25.302;2023-06-22T02:23:44;98288.44;;;21.18;100.00
29733;BME280;16643;43.158;25.302;2023-06-22T02:26:10;98290.41;;;21.15;100.00
29733;BME280;16643;43.158;25.302;2023-06-22T02:28:36;98288.31;;;21.07;100.00
29733;BME280;16643;43.158;25.302;2023-06-22T02:31:02;98272.56;;;20.93;100.00
29733;BME280;16643;43.158;25.302;2023-06-22T02:33:27;98277.84;;;20.80;100.00
29733;BME280;16643;43.158;25.302;2023-06-22T02:35:53;98287.25;;;20.84;100.00
29733;BME280;16643;43.158;25.302;2023-06-22T02:38:19;98290.31;;;20.91;100.00
29733;BME280;16643;43.158;25.302;2023-06-22T02:40:45;98287.78;;;20.89;100.00
29733;BME280;16643;43.158;25.302;2023-06-22T02:43:11;98292.44;;;20.98;100.00
29733;BME280;16643;43.158;25.302;2023-06-22T02:45:37;98284.50;;;20.86;100.00
29733;BME280;16643;43.158;25.302;2023-06-22T02:48:03;98286.19;;;20.99;100.00
29733;BME280;16643;43.158;25.302;2023-06-22T02:50:29;98287.66;;;21.03;100.00
29733;BME280;16643;43.158;25.302;2023-06-22T02:52:54;98275.41;;;20.90;100.00
29733;BME280;16643;43.158;25.302;2023-06-22T02:55:20;98295.50;;;20.92;100.00
29733;BME280;16643;43.158;25.302;2023-06-22T02:57:45;98290.97;;;20.94;100.00
29733;BME280;16643;43.158;25.302;2023-06-22T03:00:14;98291.59;;;20.85;100.00
29733;BME280;16643;43.158;25.302;2023-06-22T03:02:49;98295.28;;;20.95;100.00
29733;BME280;16643;43.158;25.302;2023-06-22T03:05:15;98295.19;;;20.97;100.00
29733;BME280;16643;43.158;25.302;2023-06-22T03:07:46;98263.47;;;20.84;100.00
29733;BME280;16643;43.158;25.302;2023-06-22T03:10:13;98309.16;;;20.99;100.00
29733;BME280;16643;43.158;25.302;2023-06-22T03:12:39;98321.84;;;21.07;100.00
29733;BME280;16643;43.158;25.302;2023-06-22T03:15:06;98302.59;;;21.05;100.00
29733;BME280;16643;43.158;25.302;2023-06-22T03:17:33;98299.00;;;20.93;100.00
29733;BME280;16643;43.158;25.302;2023-06-22T03:19:59;98331.97;;;21.13;100.00
29733;BME280;16643;43.158;25.302;2023-06-22T03:22:25;98316.34;;;21.10;100.00
29733;BME280;16643;43.158;25.302;2023-06-22T03:24:51;98315.50;;;21.09;100.00
29733;BME280;16643;43.158;25.302;2023-06-22T03:27:16;98321.28;;;21.14;100.00
29733;BME280;16643;43.158;25.302;2023-06-22T03:29:43;98297.50;;;21.01;100.00
29733;BME280;16643;43.158;25.302;2023-06-22T03:32:10;98318.53;;;21.16;100.00
29733;BME280;16643;43.158;25.302;2023-06-22T03:34:35;98318.66;;;21.14;100.00
29733;BME280;16643;43.158;25.302;2023-06-22T03:37:01;98331.16;;;21.25;100.00
29733;BME280;16643;43.158;25.302;2023-06-22T03:39:28;98333.41;;;21.18;100.00
29733;BME280;16643;43.158;25.302;2023-06-22T03:41:53;98306.38;;;21.13;100.00
29733;BME280;16643;43.158;25.302;2023-06-22T03:44:19;98313.69;;;21.22;100.00
29733;BME280;16643;43.158;25.302;2023-06-22T03:46:45;98329.16;;;21.28;100.00
29733;BME280;16643;43.158;25.302;2023-06-22T03:49:10;98317.09;;;21.24;100.00
29733;BME280;16643;43.158;25.302;2023-06-22T03:51:36;98320.38;;;21.28;100.00
29733;BME280;16643;43.158;25.302;2023-06-22T03:54:01;98341.63;;;21.39;100.00
29733;BME280;16643;43.158;25.302;2023-06-22T03:56:27;98328.19;;;21.42;100.00
29733;BME280;16643;43.158;25.302;2023-06-22T03:58:53;98326.16;;;21.46;100.00
29733;BME280;16643;43.158;25.302;2023-06-22T04:01:18;98314.50;;;21.48;100.00
29733;BME280;16643;43.158;25.302;2023-06-22T04:03:44;98342.72;;;21.73;100.00
29733;BME280;16643;43.158;25.302;2023-06-22T04:06:10;98338.03;;;21.89;100.00
29733;BME280;16643;43.158;25.302;2023-06-22T04:08:35;98342.84;;;22.08;100.00
29733;BME280;16643;43.158;25.302;2023-06-22T04:11:01;98353.94;;;22.37;100.00
29733;BME280;16643;43.158;25.302;2023-06-22T04:13:27;98354.44;;;22.66;100.00
29733;BME280;16643;43.158;25.302;2023-06-22T04:15:52;98319.97;;;22.66;99.98
29733;BME280;16643;43.158;25.302;2023-06-22T04:18:18;98336.31;;;22.95;98.76
29733;BME280;16643;43.158;25.302;2023-06-22T04:20:43;98363.63;;;23.30;97.82
29733;BME280;16643;43.158;25.302;2023-06-22T04:23:12;98363.44;;;23.56;96.59
29733;BME280;16643;43.158;25.302;2023-06-22T04:25:39;98359.91;;;23.77;94.43
29733;BME280;16643;43.158;25.302;2023-06-22T04:28:04;98359.38;;;24.06;93.71
29733;BME280;16643;43.158;25.302;2023-06-22T04:30:32;98341.00;;;24.14;92.46
29733;BME280;16643;43.158;25.302;2023-06-22T04:32:59;98359.25;;;24.50;90.60
29733;BME280;16643;43.158;25.302;2023-06-22T04:35:25;98374.75;;;24.77;89.60
29733;BME280;16643;43.158;25.302;2023-06-22T04:37:52;98373.88;;;25.09;87.30
29733;BME280;16643;43.158;25.302;2023-06-22T04:40:22;98365.84;;;25.29;83.96
29733;BME280;16643;43.158;25.302;2023-06-22T04:42:48;98356.09;;;25.40;83.28
29733;BME280;16643;43.158;25.302;2023-06-22T04:45:19;98370.44;;;25.69;80.21
29733;BME280;16643;43.158;25.302;2023-06-22T04:47:45;98354.03;;;25.74;83.20
29733;BME280;16643;43.158;25.302;2023-06-22T04:50:11;98361.66;;;25.88;82.89
29733;BME280;16643;43.158;25.302;2023-06-22T04:52:38;98365.75;;;25.92;84.01
29733;BME280;16643;43.158;25.302;2023-06-22T04:55:04;98365.84;;;25.81;87.50
29733;BME280;16643;43.158;25.302;2023-06-22T04:57:29;98368.88;;;25.66;86.65
29733;BME280;16643;43.158;25.302;2023-06-22T04:59:59;98366.81;;;25.28;85.64
29733;BME280;16643;43.158;25.302;2023-06-22T05:02:41;98363.19;;;25.29;85.48
29733;BME280;16643;43.158;25.302;2023-06-22T05:05:07;98375.22;;;25.54;84.39
29733;BME280;16643;43.158;25.302;2023-06-22T05:07:36;98357.84;;;25.50;85.26
29733;BME280;16643;43.158;25.302;2023-06-22T05:10:03;98383.22;;;25.85;83.42
29733;BME280;16643;43.158;25.302;2023-06-22T05:12:29;98389.84;;;25.90;79.58
29733;BME280;16643;43.158;25.302;2023-06-22T05:14:55;98373.56;;;25.84;78.60
29733;BME280;16643;43.158;25.302;2023-06-22T05:17:21;98380.38;;;26.07;78.26
29733;BME280;16643;43.158;25.302;2023-06-22T05:19:47;98386.56;;;26.17;77.64
29733;BME280;16643;43.158;25.302;2023-06-22T05:22:16;98380.66;;;26.14;76.01
29733;BME280;16643;43.158;25.302;2023-06-22T05:24:42;98376.44;;;26.21;76.31
29733;BME280;16643;43.158;25.302;2023-06-22T05:27:09;98381.78;;;26.21;76.54
29733;BME280;16643;43.158;25.302;2023-06-22T05:29:35;98339.09;;;26.01;75.54
29733;BME280;16643;43.158;25.302;2023-06-22T05:32:01;98372.84;;;26.31;74.85
29733;BME280;16643;43.158;25.302;2023-06-22T05:34:26;98391.97;;;26.56;75.21
29733;BME280;16643;43.158;25.302;2023-06-22T05:36:52;98389.59;;;26.72;74.59
29733;BME280;16643;43.158;25.302;2023-06-22T05:39:18;98405.59;;;26.91;75.54
29733;BME280;16643;43.158;25.302;2023-06-22T05:41:46;98388.47;;;26.84;76.63
29733;BME280;16643;43.158;25.302;2023-06-22T05:44:12;98399.28;;;26.83;74.50
29733;BME280;16643;43.158;25.302;2023-06-22T05:46:44;98398.44;;;27.01;74.08
29733;BME280;16643;43.158;25.302;2023-06-22T05:49:12;98384.97;;;27.03;73.64
29733;BME280;16643;43.158;25.302;2023-06-22T05:51:41;98400.53;;;27.27;73.32
29733;BME280;16643;43.158;25.302;2023-06-22T05:54:10;98393.06;;;27.21;73.76
29733;BME280;16643;43.158;25.302;2023-06-22T05:56:36;98406.72;;;27.27;76.85
29733;BME280;16643;43.158;25.302;2023-06-22T05:59:03;98401.81;;;27.03;79.05
29733;BME280;16643;43.158;25.302;2023-06-22T06:01:30;98400.16;;;26.93;81.48
29733;BME280;16643;43.158;25.302;2023-06-22T06:04:01;98400.97;;;27.03;82.11
29733;BME280;16643;43.158;25.302;2023-06-22T06:06:27;98411.22;;;27.27;82.38
29733;BME280;16643;43.158;25.302;2023-06-22T06:08:54;98382.94;;;27.24;78.59
29733;BME280;16643;43.158;25.302;2023-06-22T06:11:21;98395.56;;;27.32;78.50
29733;BME280;16643;43.158;25.302;2023-06-22T06:13:47;98409.09;;;27.21;77.92
29733;BME280;16643;43.158;25.302;2023-06-22T06:16:14;98408.66;;;27.35;78.57
29733;BME280;16643;43.158;25.302;2023-06-22T06:18:40;98385.66;;;27.05;74.29
29733;BME280;16643;43.158;25.302;2023-06-22T06:21:05;98394.66;;;27.04;78.85
29733;BME280;16643;43.158;25.302;2023-06-22T06:23:31;98382.13;;;27.14;79.23
29733;BME280;16643;43.158;25.302;2023-06-22T06:25:56;98400.06;;;27.41;76.05
29733;BME280;16643;43.158;25.302;2023-06-22T06:28:24;98417.91;;;27.60;74.95
29733;BME280;16643;43.158;25.302;2023-06-22T06:30:50;98397.66;;;27.57;75.46
29733;BME280;16643;43.158;25.302;2023-06-22T06:33:17;98386.81;;;27.49;76.69
29733;BME280;16643;43.158;25.302;2023-06-22T06:35:43;98416.03;;;27.70;74.35
29733;BME280;16643;43.158;25.302;2023-06-22T06:38:08;98410.13;;;27.66;72.94
29733;BME280;16643;43.158;25.302;2023-06-22T06:40:34;98420.91;;;27.84;72.59
29733;BME280;16643;43.158;25.302;2023-06-22T06:43:00;98420.56;;;27.97;72.41
29733;BME280;16643;43.158;25.302;2023-06-22T06:45:25;98407.41;;;27.86;73.69
29733;BME280;16643;43.158;25.302;2023-06-22T06:47:53;98407.16;;;27.69;72.04
29733;BME280;16643;43.158;25.302;2023-06-22T06:50:29;98366.38;;;27.30;74.47
29733;BME280;16643;43.158;25.302;2023-06-22T06:52:55;98377.81;;;27.50;75.68
29733;BME280;16643;43.158;25.302;2023-06-22T06:55:21;98410.22;;;27.84;74.13
29733;BME280;16643;43.158;25.302;2023-06-22T06:57:50;98425.66;;;27.90;72.69
29733;BME280;16643;43.158;25.302;2023-06-22T07:00:16;98402.75;;;27.88;73.03
29733;BME280;16643;43.158;25.302;2023-06-22T07:02:48;98422.06;;;28.09;71.38
29733;BME280;16643;43.158;25.302;2023-06-22T07:05:22;98410.97;;;28.04;70.22
29733;BME280;16643;43.158;25.302;2023-06-22T07:07:49;98386.63;;;27.70;68.54
29733;BME280;16643;43.158;25.302;2023-06-22T07:10:15;98400.56;;;28.28;70.49
29733;BME280;16643;43.158;25.302;2023-06-22T07:12:41;98368.56;;;28.18;68.60
29733;BME280;16643;43.158;25.302;2023-06-22T07:15:08;98377.81;;;28.14;70.46
29733;BME280;16643;43.158;25.302;2023-06-22T07:17:34;98434.72;;;28.44;67.34
29733;BME280;16643;43.158;25.302;2023-06-22T07:20:01;98365.03;;;28.36;69.43
29733;BME280;16643;43.158;25.302;2023-06-22T07:22:27;98383.72;;;28.63;69.95
29733;BME280;16643;43.158;25.302;2023-06-22T07:24:54;98381.41;;;28.68;67.68
29733;BME280;16643;43.158;25.302;2023-06-22T07:27:20;98394.28;;;29.00;66.31
29733;BME280;16643;43.158;25.302;2023-06-22T07:29:46;98407.50;;;29.02;65.42
29733;BME280;16643;43.158;25.302;2023-06-22T07:32:12;98394.28;;;29.00;67.80
29733;BME280;16643;43.158;25.302;2023-06-22T07:34:38;98403.91;;;29.11;65.28
29733;BME280;16643;43.158;25.302;2023-06-22T07:37:04;98370.50;;;28.79;64.85
29733;BME280;16643;43.158;25.302;2023-06-22T07:39:30;98396.56;;;28.95;65.03
29733;BME280;16643;43.158;25.302;2023-06-22T07:41:55;98420.25;;;29.25;65.47
29733;BME280;16643;43.158;25.302;2023-06-22T07:44:21;98395.78;;;29.46;64.77
29733;BME280;16643;43.158;25.302;2023-06-22T07:46:47;98399.22;;;29.56;64.56
29733;BME280;16643;43.158;25.302;2023-06-22T07:49:13;98437.78;;;29.89;65.41
29733;BME280;16643;43.158;25.302;2023-06-22T07:51:38;98379.16;;;29.69;64.49
29733;BME280;16643;43.158;25.302;2023-06-22T07:54:04;98341.28;;;29.64;62.72
29733;BME280;16643;43.158;25.302;2023-06-22T07:56:30;98433.91;;;30.18;63.40
29733;BME280;16643;43.158;25.302;2023-06-22T07:58:55;98421.34;;;29.92;61.15
29733;BME280;16643;43.158;25.302;2023-06-22T08:01:23;98373.47;;;29.72;62.29
29733;BME280;16643;43.158;25.302;2023-06-22T08:03:49;98424.28;;;30.07;61.26
29733;BME280;16643;43.158;25.302;2023-06-22T08:06:15;98411.34;;;30.03;63.72
29733;BME280;16643;43.158;25.302;2023-06-22T08:08:41;98387.13;;;29.86;62.43
29733;BME280;16643;43.158;25.302;2023-06-22T08:11:08;98367.63;;;29.68;60.40
29733;BME280;16643;43.158;25.302;2023-06-22T08:13:34;98372.41;;;29.90;57.80
29733;BME280;16643;43.158;25.302;2023-06-22T08:16:00;98371.06;;;29.94;63.05
29733;BME280;16643;43.158;25.302;2023-06-22T08:18:25;98399.63;;;30.04;61.55
29733;BME280;16643;43.158;25.302;2023-06-22T08:20:51;98388.56;;;29.99;59.59
29733;BME280;16643;43.158;25.302;2023-06-22T08:23:17;98379.81;;;29.63;62.20
29733;BME280;16643;43.158;25.302;2023-06-22T08:25:43;98395.75;;;29.98;63.53
29733;BME280;16643;43.158;25.302;2023-06-22T08:28:08;98397.53;;;30.23;61.87
29733;BME280;16643;43.158;25.302;2023-06-22T08:30:34;98380.59;;;30.23;59.66
29733;BME280;16643;43.158;25.302;2023-06-22T08:33:00;98403.28;;;30.45;59.41
29733;BME280;16643;43.158;25.302;2023-06-22T08:35:25;98387.19;;;30.45;59.74
29733;BME280;16643;43.158;25.302;2023-06-22T08:37:51;98372.78;;;30.62;60.22
29733;BME280;16643;43.158;25.302;2023-06-22T08:40:20;98380.56;;;30.81;59.63
29733;BME280;16643;43.158;25.302;2023-06-22T08:42:46;98367.59;;;30.93;57.61
29733;BME280;16643;43.158;25.302;2023-06-22T08:45:13;98359.25;;;31.12;57.85
29733;BME280;16643;43.158;25.302;2023-06-22T08:47:39;98393.28;;;31.44;56.52
29733;BME280;16643;43.158;25.302;2023-06-22T08:50:06;98416.28;;;31.71;56.51
29733;BME280;16643;43.158;25.302;2023-06-22T08:52:34;98410.56;;;31.58;57.11
29733;BME280;16643;43.158;25.302;2023-06-22T08:55:00;98400.50;;;31.44;56.98
29733;BME280;16643;43.158;25.302;2023-06-22T08:57:26;98353.81;;;31.04;58.07
29733;BME280;16643;43.158;25.302;2023-06-22T08:59:52;98358.59;;;30.11;60.46
29733;BME280;16643;43.158;25.302;2023-06-22T09:02:18;98416.47;;;30.88;58.85
29733;BME280;16643;43.158;25.302;2023-06-22T09:04:46;98351.00;;;30.89;58.15
29733;BME280;16643;43.158;25.302;2023-06-22T09:07:12;98354.88;;;31.11;57.00
29733;BME280;16643;43.158;25.302;2023-06-22T09:09:37;98354.81;;;31.27;57.64
29733;BME280;16643;43.158;25.302;2023-06-22T09:12:04;98373.63;;;31.27;57.12
29733;BME280;16643;43.158;25.302;2023-06-22T09:14:29;98359.00;;;31.38;59.29
29733;BME280;16643;43.158;25.302;2023-06-22T09:16:55;98420.72;;;32.03;56.57
29733;BME280;16643;43.158;25.302;2023-06-22T09:19:21;98373.97;;;31.40;52.92
29733;BME280;16643;43.158;25.302;2023-06-22T09:21:46;98374.69;;;31.26;58.21
29733;BME280;16643;43.158;25.302;2023-06-22T09:24:12;98349.63;;;31.34;57.56
29733;BME280;16643;43.158;25.302;2023-06-22T09:26:38;98392.69;;;31.89;54.89
29733;BME280;16643;43.158;25.302;2023-06-22T09:29:06;98386.19;;;32.15;52.06
29733;BME280;16643;43.158;25.302;2023-06-22T09:31:32;98349.59;;;31.97;51.23
29733;BME280;16643;43.158;25.302;2023-06-22T09:33:57;98375.06;;;32.26;50.47
29733;BME280;16643;43.158;25.302;2023-06-22T09:36:23;98373.31;;;32.33;50.04
29733;BME280;16643;43.158;25.302;2023-06-22T09:38:49;98380.38;;;31.31;51.14
29733;BME280;16643;43.158;25.302;2023-06-22T09:41:21;98393.25;;;31.68;53.28
29733;BME280;16643;43.158;25.302;2023-06-22T09:43:47;98378.84;;;32.00;51.93
29733;BME280;16643;43.158;25.302;2023-06-22T09:46:15;98392.91;;;32.50;54.04
29733;BME280;16643;43.158;25.302;2023-06-22T09:48:40;98396.44;;;32.50;54.43
29733;BME280;16643;43.158;25.302;2023-06-22T09:51:06;98365.16;;;32.18;54.51
29733;BME280;16643;43.158;25.302;2023-06-22T09:53:32;98355.75;;;32.06;54.72
29733;BME280;16643;43.158;25.302;2023-06-22T09:55:57;98384.75;;;32.35;53.80
29733;BME280;16643;43.158;25.302;2023-06-22T09:58:23;98354.81;;;32.30;52.90
29733;BME280;16643;43.158;25.302;2023-06-22T10:00:49;98357.38;;;32.23;51.88
29733;BME280;16643;43.158;25.302;2023-06-22T10:03:14;98381.47;;;32.17;55.38
29733;BME280;16643;43.158;25.302;2023-06-22T10:05:40;98337.88;;;32.21;53.36
29733;BME280;16643;43.158;25.302;2023-06-22T10:08:06;98375.09;;;32.40;51.30
29733;BME280;16643;43.158;25.302;2023-06-22T10:10:34;98351.50;;;32.20;49.80
29733;BME280;16643;43.158;25.302;2023-06-22T10:13:08;98382.56;;;32.61;50.86
29733;BME280;16643;43.158;25.302;2023-06-22T10:15:36;98410.59;;;32.75;49.23
29733;BME280;16643;43.158;25.302;2023-06-22T10:18:03;98396.09;;;32.22;50.15
29733;BME280;16643;43.158;25.302;2023-06-22T10:20:30;98390.72;;;32.14;51.50
29733;BME280;16643;43.158;25.302;2023-06-22T10:22:59;98384.28;;;32.54;49.17
29733;BME280;16643;43.158;25.302;2023-06-22T10:25:27;98377.56;;;32.81;50.33
29733;BME280;16643;43.158;25.302;2023-06-22T10:27:55;98348.09;;;32.79;48.07
29733;BME280;16643;43.158;25.302;2023-06-22T10:30:21;98391.00;;;33.27;47.02
29733;BME280;16643;43.158;25.302;2023-06-22T10:33:16;98362.88;;;33.21;47.09
29733;BME280;16643;43.158;25.302;2023-06-22T10:35:46;98301.19;;;32.66;46.37
29733;BME280;16643;43.158;25.302;2023-06-22T10:38:20;98340.72;;;33.11;46.07
29733;BME280;16643;43.158;25.302;2023-06-22T10:40:49;98385.44;;;33.28;43.33
29733;BME280;16643;43.158;25.302;2023-06-22T10:43:19;98348.50;;;32.91;40.07
29733;BME280;16643;43.158;25.302;2023-06-22T10:45:46;98365.09;;;33.03;40.14
29733;BME280;16643;43.158;25.302;2023-06-22T10:48:13;98378.41;;;33.19;41.31
29733;BME280;16643;43.158;25.302;2023-06-22T10:50:39;98333.09;;;33.00;43.33
29733;BME280;16643;43.158;25.302;2023-06-22T10:53:06;98378.50;;;33.63;42.80
29733;BME280;16643;43.158;25.302;2023-06-22T10:55:32;98297.97;;;33.23;40.70
29733;BME280;16643;43.158;25.302;2023-06-22T10:57:59;98339.53;;;33.51;40.88
29733;BME280;16643;43.158;25.302;2023-06-22T11:00:26;98334.28;;;32.83;40.32
29733;BME280;16643;43.158;25.302;2023-06-22T11:02:52;98312.72;;;32.83;41.82
29733;BME280;16643;43.158;25.302;2023-06-22T11:05:22;98316.38;;;33.04;40.58
29733;BME280;16643;43.158;25.302;2023-06-22T11:07:48;98328.22;;;33.18;42.24
29733;BME280;16643;43.158;25.302;2023-06-22T11:10:15;98347.78;;;33.35;41.20
29733;BME280;16643;43.158;25.302;2023-06-22T11:12:42;98353.56;;;33.61;40.07
29733;BME280;16643;43.158;25.302;2023-06-22T11:15:08;98335.31;;;33.48;41.05
29733;BME280;16643;43.158;25.302;2023-06-22T11:17:35;98355.50;;;33.38;41.65
29733;BME280;16643;43.158;25.302;2023-06-22T11:20:01;98356.16;;;33.40;40.98
29733;BME280;16643;43.158;25.302;2023-06-22T11:22:31;98340.56;;;33.12;42.15
29733;BME280;16643;43.158;25.302;2023-06-22T11:24:58;98372.97;;;33.27;41.81
29733;BME280;16643;43.158;25.302;2023-06-22T11:27:24;98316.84;;;33.23;43.35
29733;BME280;16643;43.158;25.302;2023-06-22T11:29:50;98321.56;;;33.58;44.33
29733;BME280;16643;43.158;25.302;2023-06-22T11:32:18;98361.09;;;33.80;41.78
29733;BME280;16643;43.158;25.302;2023-06-22T11:34:44;98328.25;;;33.33;41.95
29733;BME280;16643;43.158;25.302;2023-06-22T11:37:09;98342.28;;;32.91;40.75
29733;BME280;16643;43.158;25.302;2023-06-22T11:39:35;98367.25;;;33.22;42.94
29733;BME280;16643;43.158;25.302;2023-06-22T11:42:00;98361.47;;;33.48;42.03
29733;BME280;16643;43.158;25.302;2023-06-22T11:44:26;98324.16;;;33.37;41.14
29733;BME280;16643;43.158;25.302;2023-06-22T11:46:52;98281.44;;;33.11;42.25
29733;BME280;16643;43.158;25.302;2023-06-22T11:49:17;98350.38;;;33.72;40.89
29733;BME280;16643;43.158;25.302;2023-06-22T11:51:43;98304.72;;;33.56;45.39
29733;BME280;16643;43.158;25.302;2023-06-22T11:54:09;98314.75;;;33.47;40.86
29733;BME280;16643;43.158;25.302;2023-06-22T11:56:34;98358.19;;;33.00;41.73
29733;BME280;16643;43.158;25.302;2023-06-22T11:59:00;98343.25;;;33.12;45.42
29733;BME280;16643;43.158;25.302;2023-06-22T12:01:25;98327.38;;;33.17;43.56
29733;BME280;16643;43.158;25.302;2023-06-22T12:03:51;98363.88;;;33.58;42.65
29733;BME280;16643;43.158;25.302;2023-06-22T12:06:17;98344.50;;;33.54;43.89
29733;BME280;16643;43.158;25.302;2023-06-22T12:08:43;98318.94;;;33.35;42.13
29733;BME280;16643;43.158;25.302;2023-06-22T12:11:08;98367.13;;;33.68;43.03
29733;BME280;16643;43.158;25.302;2023-06-22T12:13:34;98297.84;;;33.24;42.83
29733;BME280;16643;43.158;25.302;2023-06-22T12:15:59;98294.38;;;33.15;42.91
29733;BME280;16643;43.158;25.302;2023-06-22T12:18:25;98321.06;;;33.54;43.35
29733;BME280;16643;43.158;25.302;2023-06-22T12:20:51;98274.31;;;33.33;42.79
29733;BME280;16643;43.158;25.302;2023-06-22T12:23:16;98281.44;;;33.70;42.08
29733;BME280;16643;43.158;25.302;2023-06-22T12:25:44;98289.91;;;33.67;40.42
29733;BME280;16643;43.158;25.302;2023-06-22T12:28:10;98327.03;;;33.94;41.37
29733;BME280;16643;43.158;25.302;2023-06-22T12:30:36;98326.25;;;34.00;40.25
29733;BME280;16643;43.158;25.302;2023-06-22T12:33:01;98339.56;;;34.02;41.68
29733;BME280;16643;43.158;25.302;2023-06-22T12:35:27;98284.13;;;33.70;41.57
29733;BME280;16643;43.158;25.302;2023-06-22T12:37:53;98323.31;;;33.66;42.13
29733;BME280;16643;43.158;25.302;2023-06-22T12:40:19;98312.25;;;33.31;41.44
29733;BME280;16643;43.158;25.302;2023-06-22T12:42:45;98288.47;;;32.97;42.56
29733;BME280;16643;43.158;25.302;2023-06-22T12:45:10;98315.78;;;32.79;44.67
29733;BME280;16643;43.158;25.302;2023-06-22T12:47:36;98340.28;;;32.85;42.67
29733;BME280;16643;43.158;25.302;2023-06-22T12:50:02;98271.41;;;32.22;43.02
29733;BME280;16643;43.158;25.302;2023-06-22T12:52:32;98326.72;;;32.55;46.35